Terminal Aerodrome Forecast
Issued by NWS Jackson, MS

Home | Current Version | Previous Version | Text Only | Print | Product List | Glossary On
Versions: 1 2 3 4 5 6 7 8 9 10 11 12 13 14 15 16 17 18 19 20 21 22 23 24 25 26
000
FTUS44 KJAN 041803 AAA
TAFGWO
TAF AMD
KGWO 041803Z 0418/0518 20005KT P6SM -SHRA SCT030 OVC080
     FM042200 19005KT P6SM VCSH BKN060
     FM050800 VRB03KT P6SM BKN050=

USA.gov is the U.S. government's official web portal to all federal, state and local government web resources and services.